sensor_id;sensor_type;location;lat;lon;timestamp;pressure;altitude;pressure_sealevel;temperature;humidity
56894;BME280;43392;50.078;13.704;2023-11-21T00:01:44;96307.34;;;8.24;87.76
56894;BME280;43392;50.078;13.704;2023-11-21T00:04:10;96318.03;;;8.24;87.97
56894;BME280;43392;50.078;13.704;2023-11-21T00:06:38;96305.50;;;8.19;88.11
56894;BME280;43392;50.078;13.704;2023-11-21T00:09:06;96309.50;;;8.22;87.72
56894;BME280;43392;50.078;13.704;2023-11-21T00:11:33;96312.47;;;8.20;87.71
56894;BME280;43392;50.078;13.704;2023-11-21T00:14:00;96310.84;;;8.19;87.77
56894;BME280;43392;50.078;13.704;2023-11-21T00:16:27;96313.00;;;8.17;87.96
56894;BME280;43392;50.078;13.704;2023-11-21T00:18:54;96306.34;;;8.15;87.84
56894;BME280;43392;50.078;13.704;2023-11-21T00:21:20;96301.28;;;8.13;88.19
56894;BME280;43392;50.078;13.704;2023-11-21T00:23:48;96305.31;;;8.11;88.10
56894;BME280;43392;50.078;13.704;2023-11-21T00:26:15;96311.69;;;8.10;88.27
56894;BME280;43392;50.078;13.704;2023-11-21T00:28:41;96308.50;;;8.08;88.30
56894;BME280;43392;50.078;13.704;2023-11-21T00:31:08;96305.84;;;8.08;88.23
56894;BME280;43392;50.078;13.704;2023-11-21T00:33:35;96306.91;;;8.07;88.31
56894;BME280;43392;50.078;13.704;2023-11-21T00:36:01;96299.97;;;8.06;88.16
56894;BME280;43392;50.078;13.704;2023-11-21T00:38:28;96301.03;;;8.04;88.13
56894;BME280;43392;50.078;13.704;2023-11-21T00:40:56;96305.63;;;8.04;88.12
56894;BME280;43392;50.078;13.704;2023-11-21T00:43:23;96312.81;;;8.03;88.16
56894;BME280;43392;50.078;13.704;2023-11-21T00:45:50;96320.81;;;8.03;87.97
56894;BME280;43392;50.078;13.704;2023-11-21T00:48:16;96317.34;;;8.03;87.90
56894;BME280;43392;50.078;13.704;2023-11-21T00:50:44;96318.41;;;8.02;87.90
56894;BME280;43392;50.078;13.704;2023-11-21T00:53:10;96316.53;;;8.02;87.93
56894;BME280;43392;50.078;13.704;2023-11-21T00:55:37;96313.34;;;8.00;87.93
56894;BME280;43392;50.078;13.704;2023-11-21T00:58:06;96326.41;;;8.02;87.87
56894;BME280;43392;50.078;13.704;2023-11-21T01:00:33;96325.66;;;8.01;87.66
56894;BME280;43392;50.078;13.704;2023-11-21T01:03:00;96330.19;;;8.01;87.83
56894;BME280;43392;50.078;13.704;2023-11-21T01:05:27;96331.00;;;8.01;87.84
56894;BME280;43392;50.078;13.704;2023-11-21T01:07:54;96329.91;;;8.02;87.54
56894;BME280;43392;50.078;13.704;2023-11-21T01:10:21;96324.56;;;8.02;87.55
56894;BME280;43392;50.078;13.704;2023-11-21T01:12:48;96332.31;;;8.04;87.52
56894;BME280;43392;50.078;13.704;2023-11-21T01:15:16;96331.22;;;8.05;87.26
56894;BME280;43392;50.078;13.704;2023-11-21T01:17:42;96330.16;;;8.06;87.18
56894;BME280;43392;50.078;13.704;2023-11-21T01:20:10;96323.72;;;8.07;86.83
56894;BME280;43392;50.078;13.704;2023-11-21T01:22:38;96314.66;;;8.08;86.58
56894;BME280;43392;50.078;13.704;2023-11-21T01:25:05;96320.00;;;8.08;86.51
56894;BME280;43392;50.078;13.704;2023-11-21T01:27:32;96330.69;;;8.08;86.55
56894;BME280;43392;50.078;13.704;2023-11-21T01:29:59;96327.72;;;8.10;86.34
56894;BME280;43392;50.078;13.704;2023-11-21T01:32:27;96329.34;;;8.11;86.36
56894;BME280;43392;50.078;13.704;2023-11-21T01:34:54;96329.34;;;8.11;86.40
56894;BME280;43392;50.078;13.704;2023-11-21T01:37:21;96328.81;;;8.09;86.88
56894;BME280;43392;50.078;13.704;2023-11-21T01:39:48;96328.00;;;8.08;87.29
56894;BME280;43392;50.078;13.704;2023-11-21T01:42:14;96326.69;;;8.06;87.28
56894;BME280;43392;50.078;13.704;2023-11-21T01:44:41;96320.81;;;8.03;87.78
56894;BME280;43392;50.078;13.704;2023-11-21T01:47:08;96329.91;;;8.02;88.02
56894;BME280;43392;50.078;13.704;2023-11-21T01:49:37;96333.66;;;8.01;88.22
56894;BME280;43392;50.078;13.704;2023-11-21T01:52:04;96327.00;;;7.99;88.70
56894;BME280;43392;50.078;13.704;2023-11-21T01:54:32;96330.72;;;7.98;88.82
56894;BME280;43392;50.078;13.704;2023-11-21T01:56:59;96333.94;;;7.95;88.74
56894;BME280;43392;50.078;13.704;2023-11-21T01:59:31;96333.69;;;7.96;89.07
56894;BME280;43392;50.078;13.704;2023-11-21T02:02:00;96333.69;;;7.96;89.13
56894;BME280;43392;50.078;13.704;2023-11-21T02:04:26;96331.00;;;7.96;88.96
56894;BME280;43392;50.078;13.704;2023-11-21T02:06:54;96339.00;;;7.96;89.25
56894;BME280;43392;50.078;13.704;2023-11-21T02:09:24;96321.09;;;7.97;89.19
56894;BME280;43392;50.078;13.704;2023-11-21T02:11:52;96332.88;;;7.96;89.10
56894;BME280;43392;50.078;13.704;2023-11-21T02:14:19;96325.13;;;7.94;89.13
56894;BME280;43392;50.078;13.704;2023-11-21T02:16:48;96331.25;;;7.95;89.01
56894;BME280;43392;50.078;13.704;2023-11-21T02:19:18;96336.59;;;7.95;88.78
56894;BME280;43392;50.078;13.704;2023-11-21T02:21:45;96333.19;;;7.89;88.88
56894;BME280;43392;50.078;13.704;2023-11-21T02:24:14;96327.56;;;7.91;88.80
56894;BME280;43392;50.078;13.704;2023-11-21T02:26:42;96325.94;;;7.90;88.50
56894;BME280;43392;50.078;13.704;2023-11-21T02:29:09;96330.22;;;7.91;88.91
56894;BME280;43392;50.078;13.704;2023-11-21T02:31:37;96324.06;;;7.90;89.04
56894;BME280;43392;50.078;13.704;2023-11-21T02:34:13;96324.88;;;7.91;88.83
56894;BME280;43392;50.078;13.704;2023-11-21T02:36:41;96309.94;;;7.90;89.15
56894;BME280;43392;50.078;13.704;2023-11-21T02:39:08;96316.34;;;7.89;89.38
56894;BME280;43392;50.078;13.704;2023-11-21T02:41:37;96321.16;;;7.87;89.43
56894;BME280;43392;50.078;13.704;2023-11-21T02:44:04;96320.63;;;7.85;89.34
56894;BME280;43392;50.078;13.704;2023-11-21T02:46:32;96322.22;;;7.86;89.51
56894;BME280;43392;50.078;13.704;2023-11-21T02:48:59;96328.38;;;7.86;89.48
56894;BME280;43392;50.078;13.704;2023-11-21T02:51:26;96322.75;;;7.88;89.51
56894;BME280;43392;50.078;13.704;2023-11-21T02:53:53;96314.75;;;7.88;89.66
56894;BME280;43392;50.078;13.704;2023-11-21T02:56:19;96326.50;;;7.87;89.43
56894;BME280;43392;50.078;13.704;2023-11-21T02:58:47;96321.44;;;7.85;89.66
56894;BME280;43392;50.078;13.704;2023-11-21T03:01:14;96322.22;;;7.86;89.70
56894;BME280;43392;50.078;13.704;2023-11-21T03:03:42;96324.38;;;7.84;89.53
56894;BME280;43392;50.078;13.704;2023-11-21T03:06:09;96328.91;;;7.83;89.02
56894;BME280;43392;50.078;13.704;2023-11-21T03:08:35;96329.72;;;7.84;89.16
56894;BME280;43392;50.078;13.704;2023-11-21T03:11:03;96332.09;;;7.85;88.84
56894;BME280;43392;50.078;13.704;2023-11-21T03:13:29;96337.72;;;7.84;88.75
56894;BME280;43392;50.078;13.704;2023-11-21T03:15:57;96335.06;;;7.84;88.77
56894;BME280;43392;50.078;13.704;2023-11-21T03:18:24;96335.84;;;7.84;88.94
56894;BME280;43392;50.078;13.704;2023-11-21T03:20:52;96327.03;;;7.84;88.98
56894;BME280;43392;50.078;13.704;2023-11-21T03:23:19;96335.06;;;7.84;89.22
56894;BME280;43392;50.078;13.704;2023-11-21T03:25:45;96332.63;;;7.82;89.36
56894;BME280;43392;50.078;13.704;2023-11-21T03:28:12;96336.13;;;7.83;89.39
56894;BME280;43392;50.078;13.704;2023-11-21T03:30:38;96336.41;;;7.81;89.53
56894;BME280;43392;50.078;13.704;2023-11-21T03:33:06;96326.53;;;7.82;89.72
56894;BME280;43392;50.078;13.704;2023-11-21T03:35:34;96335.59;;;7.81;89.98
56894;BME280;43392;50.078;13.704;2023-11-21T03:38:00;96335.59;;;7.81;89.87
56894;BME280;43392;50.078;13.704;2023-11-21T03:40:27;96347.06;;;7.81;89.72
56894;BME280;43392;50.078;13.704;2023-11-21T03:42:53;96344.41;;;7.81;89.95
56894;BME280;43392;50.078;13.704;2023-11-21T03:45:20;96335.88;;;7.79;89.76
56894;BME280;43392;50.078;13.704;2023-11-21T03:47:47;96346.56;;;7.79;89.40
56894;BME280;43392;50.078;13.704;2023-11-21T03:50:15;96338.53;;;7.79;89.67
56894;BME280;43392;50.078;13.704;2023-11-21T03:52:41;96347.63;;;7.78;89.45
56894;BME280;43392;50.078;13.704;2023-11-21T03:55:08;96347.63;;;7.78;89.82
56894;BME280;43392;50.078;13.704;2023-11-21T03:57:36;96355.63;;;7.78;89.49
56894;BME280;43392;50.078;13.704;2023-11-21T04:00:03;96354.56;;;7.79;89.65
56894;BME280;43392;50.078;13.704;2023-11-21T04:02:33;96347.34;;;7.80;89.61
56894;BME280;43392;50.078;13.704;2023-11-21T04:05:00;96361.47;;;7.80;89.60
56894;BME280;43392;50.078;13.704;2023-11-21T04:07:28;96351.09;;;7.79;89.57
56894;BME280;43392;50.078;13.704;2023-11-21T04:09:55;96360.97;;;7.78;89.70
56894;BME280;43392;50.078;13.704;2023-11-21T04:12:22;96355.91;;;7.77;89.66
56894;BME280;43392;50.078;13.704;2023-11-21T04:14:48;96362.81;;;7.78;89.06
56894;BME280;43392;50.078;13.704;2023-11-21T04:17:17;96358.28;;;7.78;89.15
56894;BME280;43392;50.078;13.704;2023-11-21T04:19:43;96362.28;;;7.81;89.29
56894;BME280;43392;50.078;13.704;2023-11-21T04:22:10;96353.47;;;7.80;89.10
56894;BME280;43392;50.078;13.704;2023-11-21T04:24:38;96355.38;;;7.80;88.66
56894;BME280;43392;50.078;13.704;2023-11-21T04:27:05;96351.88;;;7.79;88.63
56894;BME280;43392;50.078;13.704;2023-11-21T04:29:31;96351.09;;;7.74;88.71
56894;BME280;43392;50.078;13.704;2023-11-21T04:31:58;96357.75;;;7.76;88.59
56894;BME280;43392;50.078;13.704;2023-11-21T04:34:24;96360.16;;;7.73;88.60
56894;BME280;43392;50.078;13.704;2023-11-21T04:36:51;96364.72;;;7.72;88.67
56894;BME280;43392;50.078;13.704;2023-11-21T04:39:17;96357.78;;;7.71;88.75
56894;BME280;43392;50.078;13.704;2023-11-21T04:41:47;96358.31;;;7.68;88.85
56894;BME280;43392;50.078;13.704;2023-11-21T04:44:13;96354.59;;;7.69;88.72
56894;BME280;43392;50.078;13.704;2023-11-21T04:46:41;96360.72;;;7.70;88.90
56894;BME280;43392;50.078;13.704;2023-11-21T04:49:08;96359.91;;;7.69;88.67
56894;BME280;43392;50.078;13.704;2023-11-21T04:51:36;96364.44;;;7.69;88.46
56894;BME280;43392;50.078;13.704;2023-11-21T04:54:02;96363.66;;;7.68;88.97
56894;BME280;43392;50.078;13.704;2023-11-21T04:56:31;96366.31;;;7.68;88.73
56894;BME280;43392;50.078;13.704;2023-11-21T04:58:59;96365.25;;;7.69;88.62
56894;BME280;43392;50.078;13.704;2023-11-21T05:01:25;96364.75;;;7.67;88.78
56894;BME280;43392;50.078;13.704;2023-11-21T05:03:52;96363.94;;;7.67;88.84
56894;BME280;43392;50.078;13.704;2023-11-21T05:06:19;96372.75;;;7.67;88.66
56894;BME280;43392;50.078;13.704;2023-11-21T05:08:45;96378.09;;;7.67;88.60
56894;BME280;43392;50.078;13.704;2023-11-21T05:11:23;96372.47;;;7.64;88.42
56894;BME280;43392;50.078;13.704;2023-11-21T05:13:50;96377.28;;;7.67;88.75
56894;BME280;43392;50.078;13.704;2023-11-21T05:16:18;96376.75;;;7.65;88.50
56894;BME280;43392;50.078;13.704;2023-11-21T05:18:44;96376.75;;;7.65;88.73
56894;BME280;43392;50.078;13.704;2023-11-21T05:21:11;96381.81;;;7.66;88.71
56894;BME280;43392;50.078;13.704;2023-11-21T05:23:38;96381.00;;;7.66;88.61
56894;BME280;43392;50.078;13.704;2023-11-21T05:26:05;96382.63;;;7.67;88.83
56894;BME280;43392;50.078;13.704;2023-11-21T05:28:32;96385.28;;;7.67;88.69
56894;BME280;43392;50.078;13.704;2023-11-21T05:30:59;96379.66;;;7.63;89.03
56894;BME280;43392;50.078;13.704;2023-11-21T05:33:28;96381.00;;;7.66;88.95
56894;BME280;43392;50.078;13.704;2023-11-21T05:35:54;96381.81;;;7.66;89.09
56894;BME280;43392;50.078;13.704;2023-11-21T05:38:21;96383.94;;;7.64;89.02
56894;BME280;43392;50.078;13.704;2023-11-21T05:40:48;96385.00;;;7.63;89.06
56894;BME280;43392;50.078;13.704;2023-11-21T05:43:14;96391.16;;;7.64;88.75
56894;BME280;43392;50.078;13.704;2023-11-21T05:45:41;96389.28;;;7.64;88.77
56894;BME280;43392;50.078;13.704;2023-11-21T05:48:08;96395.44;;;7.65;88.80
56894;BME280;43392;50.078;13.704;2023-11-21T05:50:36;96388.22;;;7.65;88.59
56894;BME280;43392;50.078;13.704;2023-11-21T05:53:03;96388.22;;;7.65;88.69
56894;BME280;43392;50.078;13.704;2023-11-21T05:55:30;96389.28;;;7.64;88.37
56894;BME280;43392;50.078;13.704;2023-11-21T05:57:56;96383.16;;;7.64;88.58
56894;BME280;43392;50.078;13.704;2023-11-21T06:00:25;96391.16;;;7.64;88.31
56894;BME280;43392;50.078;13.704;2023-11-21T06:02:53;96388.47;;;7.64;88.64
56894;BME280;43392;50.078;13.704;2023-11-21T06:05:22;96391.94;;;7.64;88.14
56894;BME280;43392;50.078;13.704;2023-11-21T06:07:51;96385.81;;;7.64;88.65
56894;BME280;43392;50.078;13.704;2023-11-21T06:10:20;96399.97;;;7.64;88.31
56894;BME280;43392;50.078;13.704;2023-11-21T06:12:47;96405.28;;;7.64;88.67
56894;BME280;43392;50.078;13.704;2023-11-21T06:15:13;96413.31;;;7.64;88.44
56894;BME280;43392;50.078;13.704;2023-11-21T06:17:40;96425.03;;;7.63;88.25
56894;BME280;43392;50.078;13.704;2023-11-21T06:20:09;96428.78;;;7.62;88.37
56894;BME280;43392;50.078;13.704;2023-11-21T06:22:40;96417.84;;;7.59;88.26
56894;BME280;43392;50.078;13.704;2023-11-21T06:25:09;96433.84;;;7.59;88.16
56894;BME280;43392;50.078;13.704;2023-11-21T06:27:39;96429.31;;;7.59;88.47
56894;BME280;43392;50.078;13.704;2023-11-21T06:30:07;96429.31;;;7.59;88.39
56894;BME280;43392;50.078;13.704;2023-11-21T06:32:35;96443.19;;;7.61;88.29
56894;BME280;43392;50.078;13.704;2023-11-21T06:35:02;96448.53;;;7.56;88.36
56894;BME280;43392;50.078;13.704;2023-11-21T06:37:29;96439.47;;;7.52;88.53
56894;BME280;43392;50.078;13.704;2023-11-21T06:39:57;96443.19;;;7.56;88.71
56894;BME280;43392;50.078;13.704;2023-11-21T06:42:26;96439.47;;;7.57;88.82
56894;BME280;43392;50.078;13.704;2023-11-21T06:44:54;96439.19;;;7.59;88.49
56894;BME280;43392;50.078;13.704;2023-11-21T06:47:22;96441.59;;;7.60;88.60
56894;BME280;43392;50.078;13.704;2023-11-21T06:49:50;96441.31;;;7.62;88.60
56894;BME280;43392;50.078;13.704;2023-11-21T06:52:17;96443.72;;;7.63;88.50
56894;BME280;43392;50.078;13.704;2023-11-21T06:54:44;96445.03;;;7.66;88.28
56894;BME280;43392;50.078;13.704;2023-11-21T06:57:12;96448.22;;;7.68;88.34
56894;BME280;43392;50.078;13.704;2023-11-21T06:59:41;96450.91;;;7.68;88.39
56894;BME280;43392;50.078;13.704;2023-11-21T07:02:08;96447.47;;;7.67;88.24
56894;BME280;43392;50.078;13.704;2023-11-21T07:04:34;96450.38;;;7.71;88.04
56894;BME280;43392;50.078;13.704;2023-11-21T07:07:02;96453.03;;;7.71;87.91
56894;BME280;43392;50.078;13.704;2023-11-21T07:09:28;96451.72;;;7.73;88.07
56894;BME280;43392;50.078;13.704;2023-11-21T07:11:55;96461.31;;;7.74;87.73
56894;BME280;43392;50.078;13.704;2023-11-21T07:14:22;96451.97;;;7.77;87.78
56894;BME280;43392;50.078;13.704;2023-11-21T07:16:50;96452.50;;;7.79;87.75
56894;BME280;43392;50.078;13.704;2023-11-21T07:19:18;96456.78;;;7.80;87.81
56894;BME280;43392;50.078;13.704;2023-11-21T07:21:45;96466.09;;;7.82;87.80
56894;BME280;43392;50.078;13.704;2023-11-21T07:24:11;96463.97;;;7.84;87.68
56894;BME280;43392;50.078;13.704;2023-11-21T07:26:38;96463.69;;;7.86;87.45
56894;BME280;43392;50.078;13.704;2023-11-21T07:29:05;96455.16;;;7.89;87.34
56894;BME280;43392;50.078;13.704;2023-11-21T07:31:32;96461.03;;;7.91;87.47
56894;BME280;43392;50.078;13.704;2023-11-21T07:34:01;96457.00;;;7.93;87.36
56894;BME280;43392;50.078;13.704;2023-11-21T07:36:28;96465.53;;;7.95;87.00
56894;BME280;43392;50.078;13.704;2023-11-21T07:38:54;96462.34;;;7.98;86.77
56894;BME280;43392;50.078;13.704;2023-11-21T07:41:21;96475.16;;;8.01;86.86
56894;BME280;43392;50.078;13.704;2023-11-21T07:43:47;96473.28;;;8.02;86.55
56894;BME280;43392;50.078;13.704;2023-11-21T07:46:14;96484.22;;;8.00;86.25
56894;BME280;43392;50.078;13.704;2023-11-21T07:48:41;96478.38;;;7.93;86.41
56894;BME280;43392;50.078;13.704;2023-11-21T07:51:10;96494.38;;;7.93;86.60
56894;BME280;43392;50.078;13.704;2023-11-21T07:53:38;96493.31;;;7.94;86.42
56894;BME280;43392;50.078;13.704;2023-11-21T07:56:06;96485.84;;;7.96;86.87
56894;BME280;43392;50.078;13.704;2023-11-21T07:58:34;96493.28;;;7.99;86.78
56894;BME280;43392;50.078;13.704;2023-11-21T08:01:02;96484.22;;;8.00;87.68
56894;BME280;43392;50.078;13.704;2023-11-21T08:03:28;96485.84;;;8.01;87.34
56894;BME280;43392;50.078;13.704;2023-11-21T08:05:55;96483.19;;;8.01;87.70
56894;BME280;43392;50.078;13.704;2023-11-21T08:08:24;96488.50;;;8.01;87.62
56894;BME280;43392;50.078;13.704;2023-11-21T08:10:51;96500.53;;;8.04;88.21
56894;BME280;43392;50.078;13.704;2023-11-21T08:13:21;96503.19;;;8.04;87.69
56894;BME280;43392;50.078;13.704;2023-11-21T08:15:48;96505.06;;;8.03;87.83
56894;BME280;43392;50.078;13.704;2023-11-21T08:18:15;96507.44;;;8.05;88.08
56894;BME280;43392;50.078;13.704;2023-11-21T08:20:43;96510.41;;;8.03;87.96
56894;BME280;43392;50.078;13.704;2023-11-21T08:23:13;96507.72;;;8.03;87.83
56894;BME280;43392;50.078;13.704;2023-11-21T08:25:42;96505.06;;;8.03;88.02
56894;BME280;43392;50.078;13.704;2023-11-21T08:28:09;96507.19;;;8.01;88.01
56894;BME280;43392;50.078;13.704;2023-11-21T08:30:35;96505.88;;;8.04;88.18
56894;BME280;43392;50.078;13.704;2023-11-21T08:33:02;96512.50;;;8.07;87.99
56894;BME280;43392;50.078;13.704;2023-11-21T08:35:29;96505.06;;;8.09;87.97
56894;BME280;43392;50.078;13.704;2023-11-21T08:37:56;96511.72;;;8.11;87.69
56894;BME280;43392;50.078;13.704;2023-11-21T08:40:22;96506.91;;;8.08;87.60
56894;BME280;43392;50.078;13.704;2023-11-21T08:42:52;96515.97;;;8.07;87.56
56894;BME280;43392;50.078;13.704;2023-11-21T08:45:19;96518.94;;;8.06;87.74
56894;BME280;43392;50.078;13.704;2023-11-21T08:47:46;96520.00;;;8.04;87.93
56894;BME280;43392;50.078;13.704;2023-11-21T08:50:12;96515.47;;;8.05;87.79
56894;BME280;43392;50.078;13.704;2023-11-21T08:52:39;96523.75;;;8.09;88.01
56894;BME280;43392;50.078;13.704;2023-11-21T08:55:06;96520.50;;;8.12;87.89
56894;BME280;43392;50.078;13.704;2023-11-21T08:57:34;96530.13;;;8.18;87.88
56894;BME280;43392;50.078;13.704;2023-11-21T09:00:03;96529.59;;;8.26;87.94
56894;BME280;43392;50.078;13.704;2023-11-21T09:02:33;96520.50;;;8.32;88.00
56894;BME280;43392;50.078;13.704;2023-11-21T09:05:00;96529.84;;;8.39;87.93
56894;BME280;43392;50.078;13.704;2023-11-21T09:07:28;96518.03;;;8.45;87.68
56894;BME280;43392;50.078;13.704;2023-11-21T09:09:55;96521.25;;;8.52;87.26
56894;BME280;43392;50.078;13.704;2023-11-21T09:12:22;96519.34;;;8.58;87.20
56894;BME280;43392;50.078;13.704;2023-11-21T09:14:50;96531.09;;;8.62;86.69
56894;BME280;43392;50.078;13.704;2023-11-21T09:17:18;96527.63;;;8.66;86.19
56894;BME280;43392;50.078;13.704;2023-11-21T09:19:45;96524.38;;;8.69;85.81
56894;BME280;43392;50.078;13.704;2023-11-21T09:22:15;96538.81;;;8.68;85.31
56894;BME280;43392;50.078;13.704;2023-11-21T09:24:42;96538.53;;;8.70;84.90
56894;BME280;43392;50.078;13.704;2023-11-21T09:27:09;96538.56;;;8.65;84.17
56894;BME280;43392;50.078;13.704;2023-11-21T09:29:36;96549.81;;;8.62;83.82
56894;BME280;43392;50.078;13.704;2023-11-21T09:32:04;96545.53;;;8.61;83.59
56894;BME280;43392;50.078;13.704;2023-11-21T09:34:33;96541.50;;;8.63;83.18
56894;BME280;43392;50.078;13.704;2023-11-21T09:37:01;96557.81;;;8.67;82.97
56894;BME280;43392;50.078;13.704;2023-11-21T09:39:30;96553.75;;;8.75;82.85
56894;BME280;43392;50.078;13.704;2023-11-21T09:42:04;96557.22;;;8.80;82.13
56894;BME280;43392;50.078;13.704;2023-11-21T09:44:43;96565.25;;;8.80;82.32
56894;BME280;43392;50.078;13.704;2023-11-21T09:47:14;96554.31;;;8.72;82.24
56894;BME280;43392;50.078;13.704;2023-11-21T09:49:46;96555.91;;;8.73;82.34
56894;BME280;43392;50.078;13.704;2023-11-21T09:52:20;96558.03;;;8.76;82.03
56894;BME280;43392;50.078;13.704;2023-11-21T09:54:50;96548.16;;;8.76;82.06
56894;BME280;43392;50.078;13.704;2023-11-21T09:57:19;96552.41;;;8.77;82.08
56894;BME280;43392;50.078;13.704;2023-11-21T09:59:51;96556.72;;;8.73;81.64
56894;BME280;43392;50.078;13.704;2023-11-21T10:02:18;96556.69;;;8.78;81.65
56894;BME280;43392;50.078;13.704;2023-11-21T10:04:48;96556.97;;;8.77;81.39
56894;BME280;43392;50.078;13.704;2023-11-21T10:07:17;96545.47;;;8.76;80.72
56894;BME280;43392;50.078;13.704;2023-11-21T10:09:44;96551.88;;;8.80;81.04
56894;BME280;43392;50.078;13.704;2023-11-21T10:12:11;96546.50;;;8.90;81.01
56894;BME280;43392;50.078;13.704;2023-11-21T10:14:41;96545.34;;;9.01;80.63
56894;BME280;43392;50.078;13.704;2023-11-21T10:17:10;96545.03;;;9.13;79.92
56894;BME280;43392;50.078;13.704;2023-11-21T10:19:38;96546.59;;;9.24;79.17
56894;BME280;43392;50.078;13.704;2023-11-21T10:22:07;96540.66;;;9.32;78.08
56894;BME280;43392;50.078;13.704;2023-11-21T10:24:34;96550.56;;;9.31;78.45
56894;BME280;43392;50.078;13.704;2023-11-21T10:27:00;96552.38;;;9.36;78.40
56894;BME280;43392;50.078;13.704;2023-11-21T10:29:29;96555.91;;;9.31;77.49
56894;BME280;43392;50.078;13.704;2023-11-21T10:31:55;96551.09;;;9.28;77.33
56894;BME280;43392;50.078;13.704;2023-11-21T10:34:24;96554.91;;;9.17;77.05
56894;BME280;43392;50.078;13.704;2023-11-21T10:36:52;96556.78;;;9.17;76.94
56894;BME280;43392;50.078;13.704;2023-11-21T10:39:24;96552.28;;;9.12;76.42
56894;BME280;43392;50.078;13.704;2023-11-21T10:41:55;96552.31;;;9.02;75.35
56894;BME280;43392;50.078;13.704;2023-11-21T10:44:22;96551.53;;;8.97;75.74
56894;BME280;43392;50.078;13.704;2023-11-21T10:46:50;96551.28;;;8.93;75.72
56894;BME280;43392;50.078;13.704;2023-11-21T10:49:17;96549.69;;;8.92;75.92
56894;BME280;43392;50.078;13.704;2023-11-21T10:51:44;96550.78;;;8.91;76.05
56894;BME280;43392;50.078;13.704;2023-11-21T10:54:10;96549.16;;;8.90;75.91
56894;BME280;43392;50.078;13.704;2023-11-21T10:56:40;96554.78;;;8.89;75.58
56894;BME280;43392;50.078;13.704;2023-11-21T10:59:10;96558.78;;;8.91;76.16
56894;BME280;43392;50.078;13.704;2023-11-21T11:01:40;96551.84;;;8.90;75.99
56894;BME280;43392;50.078;13.704;2023-11-21T11:04:09;96548.34;;;8.90;75.75
56894;BME280;43392;50.078;13.704;2023-11-21T11:06:41;96551.28;;;8.93;75.81
56894;BME280;43392;50.078;13.704;2023-11-21T11:09:08;96546.44;;;9.00;75.88
56894;BME280;43392;50.078;13.704;2023-11-21T11:11:39;96543.75;;;9.05;75.98
56894;BME280;43392;50.078;13.704;2023-11-21T11:14:10;96547.47;;;9.09;76.16
56894;BME280;43392;50.078;13.704;2023-11-21T11:16:39;96547.44;;;9.14;76.07
56894;BME280;43392;50.078;13.704;2023-11-21T11:19:06;96542.34;;;9.18;76.22
56894;BME280;43392;50.078;13.704;2023-11-21T11:21:42;96534.59;;;9.16;75.72
56894;BME280;43392;50.078;13.704;2023-11-21T11:24:32;96537.78;;;9.18;75.70
56894;BME280;43392;50.078;13.704;2023-11-21T11:27:06;96533.00;;;9.15;76.15
56894;BME280;43392;50.078;13.704;2023-11-21T11:29:42;96531.91;;;9.16;76.25
56894;BME280;43392;50.078;13.704;2023-11-21T11:32:18;96527.38;;;9.17;76.91
56894;BME280;43392;50.078;13.704;2023-11-21T11:34:53;96530.03;;;9.17;77.06
56894;BME280;43392;50.078;13.704;2023-11-21T11:37:24;96533.53;;;9.12;77.23
56894;BME280;43392;50.078;13.704;2023-11-21T11:39:51;96538.91;;;9.07;77.17
56894;BME280;43392;50.078;13.704;2023-11-21T11:42:21;96533.06;;;9.00;77.32
56894;BME280;43392;50.078;13.704;2023-11-21T11:44:52;96538.97;;;8.97;77.83
56894;BME280;43392;50.078;13.704;2023-11-21T11:47:22;96539.50;;;8.94;78.25
56894;BME280;43392;50.078;13.704;2023-11-21T11:50:06;96554.78;;;8.89;78.55
56894;BME280;43392;50.078;13.704;2023-11-21T11:52:40;96549.19;;;8.85;78.97
56894;BME280;43392;50.078;13.704;2023-11-21T11:55:08;96542.78;;;8.81;79.10
56894;BME280;43392;50.078;13.704;2023-11-21T11:57:38;96544.94;;;8.79;79.32
56894;BME280;43392;50.078;13.704;2023-11-21T12:00:15;96547.63;;;8.79;80.00
56894;BME280;43392;50.078;13.704;2023-11-21T12:02:47;96541.19;;;8.75;80.08
56894;BME280;43392;50.078;13.704;2023-11-21T12:05:15;96553.50;;;8.76;80.43
56894;BME280;43392;50.078;13.704;2023-11-21T12:07:48;96546.84;;;8.74;80.39
56894;BME280;43392;50.078;13.704;2023-11-21T12:10:16;96547.09;;;8.72;80.94
56894;BME280;43392;50.078;13.704;2023-11-21T12:12:49;96545.50;;;8.71;81.09
56894;BME280;43392;50.078;13.704;2023-11-21T12:15:18;96541.22;;;8.70;81.31
56894;BME280;43392;50.078;13.704;2023-11-21T12:17:46;96542.56;;;8.67;81.68
56894;BME280;43392;50.078;13.704;2023-11-21T12:20:15;96549.00;;;8.66;81.74
56894;BME280;43392;50.078;13.704;2023-11-21T12:22:43;96549.81;;;8.62;82.14
56894;BME280;43392;50.078;13.704;2023-11-21T12:25:13;96562.63;;;8.60;82.50
56894;BME280;43392;50.078;13.704;2023-11-21T12:27:42;96558.63;;;8.57;82.72
56894;BME280;43392;50.078;13.704;2023-11-21T12:30:12;96559.19;;;8.54;82.70
56894;BME280;43392;50.078;13.704;2023-11-21T12:32:41;96566.69;;;8.52;83.03
56894;BME280;43392;50.078;13.704;2023-11-21T12:35:09;96564.00;;;8.52;83.00
56894;BME280;43392;50.078;13.704;2023-11-21T12:37:36;96565.06;;;8.51;83.17
56894;BME280;43392;50.078;13.704;2023-11-21T12:40:05;96574.72;;;8.42;83.08
56894;BME280;43392;50.078;13.704;2023-11-21T12:42:32;96571.78;;;8.34;83.23
56894;BME280;43392;50.078;13.704;2023-11-21T12:45:18;96584.09;;;8.30;83.67
56894;BME280;43392;50.078;13.704;2023-11-21T12:47:46;96586.22;;;8.23;83.82
56894;BME280;43392;50.078;13.704;2023-11-21T12:50:13;96585.13;;;8.19;84.71
56894;BME280;43392;50.078;13.704;2023-11-21T12:52:42;96577.66;;;8.16;85.22
56894;BME280;43392;50.078;13.704;2023-11-21T12:55:14;96581.94;;;8.12;85.59
56894;BME280;43392;50.078;13.704;2023-11-21T12:57:44;96580.34;;;8.11;85.67
56894;BME280;43392;50.078;13.704;2023-11-21T13:00:15;96579.25;;;8.07;85.85
56894;BME280;43392;50.078;13.704;2023-11-21T13:02:53;96580.34;;;8.00;86.58
56894;BME280;43392;50.078;13.704;2023-11-21T13:05:29;96588.63;;;7.99;86.36